Anson, TX

1:02 AM CDT on June 02, 2015 (GMT -0500)
Stamford East | | Change Station
CLOSE
Current Station
Personal Weather Station
Location: Stamford, TX
Elevation: 1608 ft
Nearby Weather Stations

Elev 1608 ft 32.94 °N, 99.78 °W | Updated 14 minutes ago

Clear
Clear
70.7 °F
Feels Like 72 °F
N
3.7
Wind Variable Wind from SE

Today
High -- | Low -- °F
--% Chance of Precip.
Yesterday
High -- | Low -- °F
Precip. -- in
6:32 AM 8:43 PM
Full, 100% visible
Pressure 29.90 in
Visibility 10.0 miles
Clouds Clear
Heat Index 72 °F
Dew Point 64 °F
Humidity 78%
Rainfall 0.00 in
Snow Depth Not available.
UV 0 out of 12
Pollen 6.30 out of 12
Air Quality Not available.
Flu Activity Local Activity
METAR KDYS 020558Z AUTO 18009KT 10SM CLR 21/16 A3002 RMK AO2 SLP124 T02090162 10292 20208 403020167 50005 $

More Conditions Fewer Conditions

Pressure 29.90 in
Visibility 10.0 miles
Clouds Clear
Heat Index 72 °F
Dew Point 64 °F
Humidity 78%
Rainfall 0.00 in
Snow Depth Not available.
UV 0 out of 12
Pollen 6.30 out of 12
Air Quality Not available.
Flu Activity Local Activity
METAR KDYS 020558Z AUTO 18009KT 10SM CLR 21/16 A3002 RMK AO2 SLP124 T02090162 10292 20208 403020167 50005 $

More Conditions Fewer Conditions

10-Day Weather Forecast

Almanac

Astronomy

Jun. 02, 2015 Rise Set
Actual Time
Civil Twilight
Nautical Twilight
Astronomical Twilight
Moon
Length of Visible Light
Length of Day
Tomorrow will be .
, % of the Moon is Illuminated

Today's Extremes

State Highs State Lows

Community

WunderPhotos

Upload Photos

1,825,922 photos uploaded!

WunderBlogs® & News

Nearby

Air Quality

  Air Quality AQ Index Pollutant
Not available.

Snow Depth

Station Depth Elevation

Earthquake Activity

City Distance Mag. Time & Date
Minimum magnitude displayed is 2.5.

Coastal Water Temperatures

Place Temperature

Stations

Nearby Weather Stations

Station Location Temp. Windchill Dew Point Humidity Wind Precip. Elev Updated Type